createdAt,value
2022-11-18T00:00:51.410Z,7.92
2022-11-18T00:03:54.124Z,7.86
2022-11-18T00:06:56.977Z,7.86
2022-11-18T00:09:59.767Z,7.89
2022-11-18T00:13:20.968Z,7.91
2022-11-18T00:16:24.473Z,7.86
2022-11-18T00:19:33.320Z,7.83
2022-11-18T00:22:36.375Z,7.86
2022-11-18T00:25:39.089Z,7.82
2022-11-18T00:28:42.714Z,7.83
2022-11-18T00:31:45.879Z,7.75
2022-11-18T00:34:48.525Z,7.78
2022-11-18T00:37:51.285Z,7.73
2022-11-18T00:41:08.273Z,7.78
2022-11-18T00:44:11.083Z,7.69
2022-11-18T00:47:13.911Z,7.63
2022-11-18T00:50:16.868Z,7.66
2022-11-18T00:53:21.134Z,7.68
2022-11-18T00:56:23.816Z,7.64
2022-11-18T00:59:26.494Z,7.62
2022-11-18T01:02:29.232Z,7.69
2022-11-18T01:05:32.002Z,7.61
2022-11-18T01:08:34.787Z,7.55
2022-11-18T01:11:55.918Z,7.47
2022-11-18T01:14:59.348Z,7.46
2022-11-18T01:18:02.125Z,7.37
2022-11-18T01:21:04.996Z,7.38
2022-11-18T01:24:07.746Z,7.27
2022-11-18T01:27:10.508Z,7.16
2022-11-18T01:30:13.863Z,7.17
2022-11-18T01:33:16.664Z,7.17
2022-11-18T01:36:25.486Z,7.18
2022-11-18T01:39:28.459Z,7.07
2022-11-18T01:42:31.256Z,7.03
2022-11-18T01:45:37.610Z,6.98
2022-11-18T01:48:40.609Z,7.04
2022-11-18T01:51:55.181Z,7.13
2022-11-18T01:55:03.864Z,7.06
2022-11-18T01:58:12.625Z,7.09
2022-11-18T02:01:15.907Z,7.02
2022-11-18T02:04:18.827Z,7.02
2022-11-18T02:07:22.791Z,6.90
2022-11-18T02:10:25.576Z,6.92
2022-11-18T02:13:29.280Z,6.96
2022-11-18T02:17:18.555Z,6.87
2022-11-18T02:20:30.231Z,6.89
2022-11-18T02:23:36.006Z,6.99
2022-11-18T02:27:13.847Z,6.89
2022-11-18T02:30:18.927Z,6.84
2022-11-18T02:33:46.645Z,6.81
2022-11-18T02:36:58.174Z,6.89
2022-11-18T02:40:15.497Z,6.85
2022-11-18T02:43:30.682Z,6.87
2022-11-18T02:46:37.195Z,6.84
2022-11-18T02:49:44.132Z,6.78
2022-11-18T02:52:51.917Z,6.90
2022-11-18T02:55:55.935Z,6.94
2022-11-18T02:58:58.598Z,6.97
2022-11-18T03:02:01.396Z,7.02
2022-11-18T03:05:05.197Z,7.11
2022-11-18T03:08:13.758Z,7.01
2022-11-18T03:11:20.489Z,7.11
2022-11-18T03:14:35.222Z,7.13
2022-11-18T03:18:01.290Z,7.14
2022-11-18T03:21:12.865Z,7.13
2022-11-18T03:24:21.495Z,7.14
2022-11-18T03:27:47.047Z,7.28
2022-11-18T03:31:02.896Z,7.31
2022-11-18T03:34:11.701Z,7.17
2022-11-18T03:37:16.614Z,7.21
2022-11-18T03:40:25.058Z,7.33
2022-11-18T03:43:32.521Z,7.31
2022-11-18T03:46:42.574Z,7.32
2022-11-18T03:49:55.958Z,7.36
2022-11-18T03:52:59.983Z,7.44
2022-11-18T03:56:16.986Z,7.40
2022-11-18T03:59:25.813Z,7.36
2022-11-18T04:02:31.084Z,7.56
2022-11-18T04:05:38.512Z,7.37
2022-11-18T04:08:44.039Z,7.48
2022-11-18T04:12:04.395Z,7.53
2022-11-18T04:15:07.797Z,7.47
2022-11-18T04:18:11.416Z,7.19
2022-11-18T04:21:14.221Z,7.21
2022-11-18T04:24:17.361Z,7.27
2022-11-18T04:27:20.164Z,7.26
2022-11-18T04:30:23.048Z,7.28
2022-11-18T04:33:25.876Z,7.24
2022-11-18T04:36:28.655Z,7.25
2022-11-18T04:39:31.500Z,7.33
2022-11-18T04:42:34.518Z,7.33
2022-11-18T04:45:37.341Z,7.44
2022-11-18T04:48:40.059Z,7.48
2022-11-18T04:51:44.125Z,7.38
2022-11-18T04:54:46.960Z,7.27
2022-11-18T04:57:49.652Z,7.24
2022-11-18T05:00:52.575Z,7.37
2022-11-18T05:03:55.432Z,7.55
2022-11-18T05:06:59.989Z,7.49
2022-11-18T05:10:02.853Z,7.56
2022-11-18T05:13:05.571Z,7.55
2022-11-18T05:16:08.445Z,7.48
2022-11-18T05:19:11.533Z,7.47
2022-11-18T05:22:15.127Z,7.37
2022-11-18T05:25:17.997Z,7.28
2022-11-18T05:28:21.612Z,7.38
2022-11-18T05:31:24.613Z,7.18
2022-11-18T05:34:27.347Z,7.18
2022-11-18T05:37:33.199Z,7.32
2022-11-18T05:40:35.998Z,7.16
2022-11-18T05:43:38.742Z,7.10
2022-11-18T05:46:42.384Z,7.07
2022-11-18T05:49:45.293Z,7.07
2022-11-18T05:52:48.021Z,7.11
2022-11-18T05:56:30.211Z,7.13
2022-11-18T05:59:32.952Z,7.17
2022-11-18T06:02:35.933Z,7.17
2022-11-18T06:05:38.630Z,7.29
2022-11-18T06:08:52.033Z,7.41
2022-11-18T06:11:58.586Z,7.41
2022-11-18T06:15:12.571Z,7.54
2022-11-18T06:18:24.788Z,7.54
2022-11-18T06:21:28.509Z,7.65
2022-11-18T06:24:31.620Z,7.66
2022-11-18T06:27:35.163Z,7.53
2022-11-18T06:30:38.691Z,7.51
2022-11-18T06:33:41.427Z,7.39
2022-11-18T06:36:44.295Z,7.38
2022-11-18T06:39:47.350Z,7.35
2022-11-18T06:43:08.706Z,7.33
2022-11-18T06:46:35.548Z,7.31
2022-11-18T06:49:38.464Z,7.29
2022-11-18T06:52:41.359Z,7.39
2022-11-18T06:55:44.215Z,7.46
2022-11-18T06:58:47.586Z,7.43
2022-11-18T07:01:51.803Z,7.47
2022-11-18T07:04:55.159Z,7.63
2022-11-18T07:07:58.680Z,7.71
2022-11-18T07:11:01.607Z,7.77
2022-11-18T07:14:04.773Z,7.79
2022-11-18T07:18:28.412Z,7.97
2022-11-18T07:21:31.199Z,7.92
2022-11-18T07:24:34.140Z,7.96
2022-11-18T07:27:36.846Z,7.99
2022-11-18T07:30:39.597Z,7.99
2022-11-18T07:33:50.577Z,8.01
2022-11-18T07:36:53.615Z,8.03
2022-11-18T07:39:56.386Z,8.16
2022-11-18T07:42:59.127Z,8.12
2022-11-18T07:46:10.039Z,8.25
2022-11-18T07:49:13.084Z,8.33
2022-11-18T07:52:16.024Z,8.50
2022-11-18T07:55:18.813Z,8.64
2022-11-18T07:58:21.592Z,8.58
2022-11-18T08:01:29.430Z,8.73
2022-11-18T08:04:32.703Z,8.77
2022-11-18T08:07:35.669Z,8.85
2022-11-18T08:10:39.547Z,8.88
2022-11-18T08:13:42.922Z,8.98
2022-11-18T08:16:45.742Z,8.86
2022-11-18T08:19:48.637Z,8.94
2022-11-18T08:22:51.330Z,8.98
2022-11-18T08:25:54.430Z,8.88
2022-11-18T08:28:58.143Z,9.04
2022-11-18T08:32:09.895Z,9.03
2022-11-18T08:35:14.995Z,9.01
2022-11-18T08:38:18.501Z,9.00
2022-11-18T08:41:41.661Z,9.07
2022-11-18T08:44:44.819Z,8.90
2022-11-18T08:47:47.697Z,8.93
2022-11-18T08:50:50.507Z,9.03
2022-11-18T08:53:53.521Z,9.20
2022-11-18T08:56:56.346Z,8.83
2022-11-18T09:00:00.262Z,8.77
2022-11-18T09:03:03.509Z,8.79
2022-11-18T09:06:12.288Z,9.09
2022-11-18T09:09:15.851Z,9.06
2022-11-18T09:12:18.660Z,9.18
2022-11-18T09:15:21.782Z,9.18
2022-11-18T09:18:25.012Z,9.60
2022-11-18T09:21:28.209Z,9.51
2022-11-18T09:24:31.093Z,9.47
2022-11-18T09:27:33.936Z,9.82
2022-11-18T09:30:37.428Z,9.85
2022-11-18T09:33:41.420Z,9.79
2022-11-18T09:36:44.253Z,9.96
2022-11-18T09:39:47.867Z,10.01
2022-11-18T09:43:17.690Z,10.07
2022-11-18T09:46:58.857Z,9.77
2022-11-18T09:53:44.336Z,9.60
2022-11-18T09:56:48.545Z,9.55
2022-11-18T09:59:52.399Z,9.50
2022-11-18T10:03:00.971Z,9.60
2022-11-18T10:06:24.351Z,9.91
2022-11-18T10:09:41.468Z,9.94
2022-11-18T10:13:02.453Z,10.03
2022-11-18T10:16:11.503Z,10.03
2022-11-18T10:19:33.436Z,10.22
2022-11-18T10:22:39.525Z,10.29
2022-11-18T10:25:43.003Z,10.27
2022-11-18T10:28:45.813Z,10.12
2022-11-18T10:32:12.045Z,9.87
2022-11-18T10:35:30.310Z,10.03
2022-11-18T10:38:33.575Z,10.09
2022-11-18T10:41:44.707Z,10.11
2022-11-18T10:44:47.566Z,9.89
2022-11-18T10:48:18.339Z,10.03
2022-11-18T10:51:24.100Z,10.19
2022-11-18T10:54:27.202Z,10.17
2022-11-18T10:57:34.987Z,10.15
2022-11-18T11:00:42.595Z,10.37
2022-11-18T11:04:17.238Z,10.45
2022-11-18T11:07:29.277Z,10.25
2022-11-18T11:10:32.339Z,10.32
2022-11-18T11:13:41.034Z,10.31
2022-11-18T11:16:59.302Z,10.29
2022-11-18T11:20:17.400Z,10.24
2022-11-18T11:23:23.633Z,10.25
2022-11-18T11:30:23.260Z,10.42
2022-11-18T11:34:19.957Z,10.44
2022-11-18T11:37:55.964Z,10.40
2022-11-18T11:41:28.319Z,10.10
2022-11-18T11:45:00.651Z,10.20
2022-11-18T11:52:54.253Z,10.33
2022-11-18T11:56:19.646Z,10.40
2022-11-18T11:59:43.855Z,10.30
2022-11-18T12:02:58.541Z,10.36
2022-11-18T12:06:01.303Z,10.35
2022-11-18T12:09:37.179Z,10.36
2022-11-18T12:13:09.006Z,10.57
2022-11-18T12:16:42.554Z,10.70
2022-11-18T12:19:45.426Z,10.65
2022-11-18T12:23:12.963Z,10.77
2022-11-18T12:26:35.281Z,10.70
2022-11-18T12:29:50.422Z,10.78
2022-11-18T12:32:57.259Z,10.90
2022-11-18T12:36:00.108Z,10.90
2022-11-18T12:39:25.076Z,10.93
2022-11-18T12:43:06.792Z,10.92
2022-11-18T12:46:09.669Z,10.84
2022-11-18T12:49:21.421Z,10.83
2022-11-18T12:52:30.409Z,10.68
2022-11-18T12:55:33.998Z,10.71
2022-11-18T12:58:37.082Z,10.66
2022-11-18T13:01:39.980Z,10.59
2022-11-18T13:04:46.701Z,10.58
2022-11-18T13:08:15.792Z,10.55
2022-11-18T13:11:37.726Z,10.49
2022-11-18T13:15:15.379Z,10.57
2022-11-18T13:18:20.901Z,10.52
2022-11-18T13:21:47.260Z,10.58
2022-11-18T13:24:52.591Z,10.52
2022-11-18T13:28:06.047Z,10.40
2022-11-18T13:31:16.598Z,10.50
2022-11-18T13:34:22.426Z,10.51
2022-11-18T13:37:31.034Z,10.52
2022-11-18T13:41:04.800Z,10.45
2022-11-18T13:44:24.444Z,10.49
2022-11-18T13:47:30.113Z,10.40
2022-11-18T13:50:40.899Z,10.43
2022-11-18T13:53:44.915Z,10.40
2022-11-18T13:56:47.978Z,10.47
2022-11-18T13:59:52.643Z,10.41
2022-11-18T14:03:04.228Z,10.40
2022-11-18T14:06:07.718Z,10.42
2022-11-18T14:09:23.075Z,10.44
2022-11-18T14:12:29.376Z,10.43
2022-11-18T14:15:32.108Z,10.44
2022-11-18T14:18:37.529Z,10.50
2022-11-18T14:21:40.652Z,10.51
2022-11-18T14:24:43.913Z,10.54
2022-11-18T14:27:56.367Z,10.57
2022-11-18T14:31:25.625Z,10.58
2022-11-18T14:34:30.361Z,10.51
2022-11-18T14:37:33.256Z,10.45
2022-11-18T14:40:36.103Z,10.39
2022-11-18T14:43:39.616Z,10.32
2022-11-18T14:46:44.889Z,10.30
2022-11-18T14:49:47.657Z,10.00
2022-11-18T14:52:50.550Z,9.85
2022-11-18T14:55:56.334Z,9.59
2022-11-18T14:58:59.552Z,9.45
2022-11-18T15:02:04.095Z,9.39
2022-11-18T15:05:07.457Z,9.37
2022-11-18T15:08:10.220Z,9.36
2022-11-18T15:11:13.493Z,9.27
2022-11-18T15:14:16.655Z,9.22
2022-11-18T15:17:20.482Z,9.12
2022-11-18T15:20:23.566Z,9.18
2022-11-18T15:23:29.748Z,9.16
2022-11-18T15:26:39.802Z,9.12
2022-11-18T15:29:42.622Z,9.09
2022-11-18T15:32:45.398Z,9.07
2022-11-18T15:35:48.312Z,9.06
2022-11-18T15:38:52.346Z,8.89
2022-11-18T15:41:55.089Z,8.84
2022-11-18T15:44:57.856Z,8.82
2022-11-18T15:48:00.647Z,8.81
2022-11-18T15:51:06.463Z,8.81
2022-11-18T15:54:13.317Z,8.80
2022-11-18T15:57:16.106Z,8.78
2022-11-18T16:00:19.275Z,8.74
2022-11-18T16:03:22.030Z,8.69
2022-11-18T16:06:25.740Z,8.71
2022-11-18T16:09:48.809Z,8.67
2022-11-18T16:12:51.655Z,8.61
2022-11-18T16:15:54.352Z,8.59
2022-11-18T16:19:02.881Z,8.53
2022-11-18T16:22:05.761Z,8.48
2022-11-18T16:25:08.970Z,8.41
2022-11-18T16:28:11.706Z,8.41
2022-11-18T16:31:33.137Z,8.36
2022-11-18T16:34:38.495Z,8.28
2022-11-18T16:37:41.271Z,8.26
2022-11-18T16:40:44.199Z,8.22
2022-11-18T16:43:49.807Z,8.14
2022-11-18T16:46:55.039Z,8.15
2022-11-18T16:49:57.915Z,8.13
2022-11-18T16:53:00.773Z,8.04
2022-11-18T16:56:04.432Z,8.04
2022-11-18T16:59:13.088Z,8.04
2022-11-18T17:02:15.866Z,7.93
2022-11-18T17:05:19.009Z,7.84
2022-11-18T17:08:21.834Z,7.82
2022-11-18T17:11:24.872Z,7.77
2022-11-18T17:14:30.049Z,7.72
2022-11-18T17:17:41.380Z,7.78
2022-11-18T17:20:44.290Z,7.78
2022-11-18T17:23:48.487Z,7.82
2022-11-18T17:26:52.520Z,7.87
2022-11-18T17:29:55.549Z,7.82
2022-11-18T17:32:58.472Z,7.84
2022-11-18T17:36:03.398Z,7.92
2022-11-18T17:39:06.267Z,7.96
2022-11-18T17:42:14.720Z,8.04
2022-11-18T17:45:17.416Z,8.03
2022-11-18T17:48:21.775Z,8.06
2022-11-18T17:51:26.384Z,8.01
2022-11-18T17:54:29.130Z,8.01
2022-11-18T17:57:31.862Z,8.00
2022-11-18T18:00:35.191Z,7.91
2022-11-18T18:03:38.477Z,7.86
2022-11-18T18:06:41.709Z,7.82
2022-11-18T18:09:44.555Z,7.90
2022-11-18T18:13:05.634Z,7.95
2022-11-18T18:16:08.667Z,8.07
2022-11-18T18:19:18.482Z,8.01
2022-11-18T18:22:21.514Z,8.06
2022-11-18T18:25:24.566Z,8.10
2022-11-18T18:28:27.538Z,8.06
2022-11-18T18:31:34.429Z,8.16
2022-11-18T18:34:37.501Z,8.10
2022-11-18T18:37:42.860Z,8.06
2022-11-18T18:40:46.046Z,8.05
2022-11-18T18:43:50.199Z,8.06
2022-11-18T18:46:52.969Z,8.04
2022-11-18T18:49:55.985Z,8.07
2022-11-18T18:52:59.044Z,8.20
2022-11-18T18:56:02.341Z,8.20
2022-11-18T18:59:05.715Z,8.30
2022-11-18T19:02:12.554Z,8.36
2022-11-18T19:05:15.727Z,8.32
2022-11-18T19:08:18.660Z,8.39
2022-11-18T19:11:41.128Z,8.31
2022-11-18T19:14:46.343Z,8.27
2022-11-18T19:17:49.311Z,8.27
2022-11-18T19:20:52.324Z,8.34
2022-11-18T19:23:55.064Z,8.38
2022-11-18T19:26:57.985Z,8.36
2022-11-18T19:30:00.954Z,8.39
2022-11-18T19:33:05.591Z,8.38
2022-11-18T19:36:09.464Z,8.29
2022-11-18T19:39:12.252Z,8.35
2022-11-18T19:42:15.222Z,8.35
2022-11-18T19:45:19.535Z,8.31
2022-11-18T19:48:22.924Z,8.42
2022-11-18T19:51:26.034Z,8.38
2022-11-18T19:54:29.149Z,8.30
2022-11-18T19:57:32.323Z,8.30
2022-11-18T20:00:35.451Z,8.18
2022-11-18T20:03:38.321Z,8.15
2022-11-18T20:06:41.722Z,8.11
2022-11-18T20:09:44.650Z,8.09
2022-11-18T20:12:47.850Z,8.01
2022-11-18T20:15:50.730Z,8.04
2022-11-18T20:19:18.363Z,8.03
2022-11-18T20:22:22.246Z,8.00
2022-11-18T20:25:26.675Z,7.92
2022-11-18T20:28:29.539Z,7.90
2022-11-18T20:31:33.889Z,7.86
2022-11-18T20:34:37.460Z,7.79
2022-11-18T20:37:42.747Z,7.86
2022-11-18T20:40:47.290Z,7.85
2022-11-18T20:43:50.724Z,7.86
2022-11-18T20:46:53.703Z,7.94
2022-11-18T20:49:57.569Z,7.90
2022-11-18T20:53:00.345Z,7.88
2022-11-18T20:56:05.213Z,7.92
2022-11-18T20:59:08.846Z,7.86
2022-11-18T21:02:11.582Z,7.85
2022-11-18T21:05:14.592Z,7.85
2022-11-18T21:08:17.549Z,7.85
2022-11-18T21:11:20.493Z,7.82
2022-11-18T21:14:25.676Z,7.82
2022-11-18T21:17:29.056Z,7.77
2022-11-18T21:20:50.791Z,7.72
2022-11-18T21:23:55.468Z,7.55
2022-11-18T21:26:59.750Z,7.49
2022-11-18T21:30:02.519Z,7.36
2022-11-18T21:33:06.610Z,7.17
2022-11-18T21:36:09.677Z,7.05
2022-11-18T21:39:12.599Z,6.90
2022-11-18T21:42:15.345Z,6.74
2022-11-18T21:45:18.497Z,6.65
2022-11-18T21:48:21.292Z,6.67
2022-11-18T21:51:25.566Z,6.67
2022-11-18T21:54:28.386Z,6.58
2022-11-18T21:57:31.291Z,6.41
2022-11-18T22:00:34.045Z,6.46
2022-11-18T22:03:41.330Z,6.50
2022-11-18T22:06:44.069Z,6.42
2022-11-18T22:09:47.229Z,6.38
2022-11-18T22:12:51.625Z,6.43
2022-11-18T22:16:08.402Z,6.36
2022-11-18T22:19:11.142Z,6.28
2022-11-18T22:22:13.881Z,6.14
2022-11-18T22:25:16.670Z,6.16
2022-11-18T22:28:19.322Z,6.25
2022-11-18T22:31:24.010Z,6.39
2022-11-18T22:34:28.661Z,6.49
2022-11-18T22:37:31.403Z,6.49
2022-11-18T22:40:34.233Z,6.65
2022-11-18T22:43:37.294Z,6.73
2022-11-18T22:46:41.490Z,6.72
2022-11-18T22:49:44.394Z,6.75
2022-11-18T22:52:47.124Z,6.81
2022-11-18T22:55:49.850Z,6.87
2022-11-18T22:58:52.841Z,6.93
2022-11-18T23:01:55.618Z,6.92
2022-11-18T23:04:58.495Z,6.99
2022-11-18T23:08:01.266Z,6.99
2022-11-18T23:11:06.863Z,7.08
2022-11-18T23:14:10.609Z,7.13
2022-11-18T23:17:13.322Z,7.21
2022-11-18T23:20:16.513Z,7.30
2022-11-18T23:23:19.312Z,7.41
2022-11-18T23:26:22.430Z,7.35
2022-11-18T23:29:25.216Z,7.33
2022-11-18T23:32:27.990Z,7.33
2022-11-18T23:35:30.727Z,7.31
2022-11-18T23:38:34.507Z,7.31
2022-11-18T23:41:37.788Z,7.31
2022-11-18T23:44:47.413Z,7.35
2022-11-18T23:47:50.085Z,7.33
2022-11-18T23:51:11.350Z,7.39
2022-11-18T23:54:14.065Z,7.47
2022-11-18T23:57:16.715Z,7.36
